sensor_id;sensor_type;location;lat;lon;timestamp;pressure;altitude;pressure_sealevel;temperature;humidity
61571;BME280;47463;49.884;10.010;2024-01-25T00:00:01;102970;;;7.4;68
61571;BME280;47463;49.884;10.010;2024-01-25T00:05:01;102959.99999999999;;;7.4;68
61571;BME280;47463;49.884;10.010;2024-01-25T00:10:01;102959.99999999999;;;7.5;68
61571;BME280;47463;49.884;10.010;2024-01-25T00:15:01;102959.99999999999;;;7.5;68
61571;BME280;47463;49.884;10.010;2024-01-25T00:20:01;102970;;;7.5;68
61571;BME280;47463;49.884;10.010;2024-01-25T00:25:01;102950;;;7.4;68
61571;BME280;47463;49.884;10.010;2024-01-25T00:30:01;102950;;;7.3;68
61571;BME280;47463;49.884;10.010;2024-01-25T00:35:01;102950;;;7.4;68
61571;BME280;47463;49.884;10.010;2024-01-25T00:40:01;102959.99999999999;;;7.3;68
61571;BME280;47463;49.884;10.010;2024-01-25T00:45:01;102950;;;7.3;68
61571;BME280;47463;49.884;10.010;2024-01-25T00:50:01;102940.00000000001;;;7.3;68
61571;BME280;47463;49.884;10.010;2024-01-25T00:55:01;102920;;;7.3;69
61571;BME280;47463;49.884;10.010;2024-01-25T01:00:01;102930;;;7.3;68
61571;BME280;47463;49.884;10.010;2024-01-25T01:05:01;102920;;;7.3;69
61571;BME280;47463;49.884;10.010;2024-01-25T01:10:01;102920;;;7.2;69
61571;BME280;47463;49.884;10.010;2024-01-25T01:15:01;102930;;;7.2;69
61571;BME280;47463;49.884;10.010;2024-01-25T01:20:01;102930;;;7.1;69
61571;BME280;47463;49.884;10.010;2024-01-25T01:25:01;102940.00000000001;;;7.1;69
61571;BME280;47463;49.884;10.010;2024-01-25T01:30:01;102940.00000000001;;;7;69
61571;BME280;47463;49.884;10.010;2024-01-25T01:35:01;102940.00000000001;;;7.1;69
61571;BME280;47463;49.884;10.010;2024-01-25T01:40:01;102959.99999999999;;;7.1;69
61571;BME280;47463;49.884;10.010;2024-01-25T01:45:01;102959.99999999999;;;7;69
61571;BME280;47463;49.884;10.010;2024-01-25T01:50:01;102959.99999999999;;;7;69
61571;BME280;47463;49.884;10.010;2024-01-25T01:55:01;102980;;;6.9;69
61571;BME280;47463;49.884;10.010;2024-01-25T02:00:01;102990.00000000001;;;6.9;69
61571;BME280;47463;49.884;10.010;2024-01-25T02:05:01;102990.00000000001;;;7.1;68
61571;BME280;47463;49.884;10.010;2024-01-25T02:10:01;103000;;;7.1;68
61571;BME280;47463;49.884;10.010;2024-01-25T02:15:01;103009.99999999999;;;7.1;68
61571;BME280;47463;49.884;10.010;2024-01-25T02:20:01;102990.00000000001;;;7.1;68
61571;BME280;47463;49.884;10.010;2024-01-25T02:25:01;102990.00000000001;;;7;69
61571;BME280;47463;49.884;10.010;2024-01-25T02:30:01;103000;;;7.1;69
61571;BME280;47463;49.884;10.010;2024-01-25T02:35:01;102990.00000000001;;;7.1;69
61571;BME280;47463;49.884;10.010;2024-01-25T02:40:01;103020;;;7.2;69
61571;BME280;47463;49.884;10.010;2024-01-25T02:45:01;103020;;;7.2;69
61571;BME280;47463;49.884;10.010;2024-01-25T02:50:01;103009.99999999999;;;7.2;69
61571;BME280;47463;49.884;10.010;2024-01-25T02:55:01;103000;;;7.2;69
61571;BME280;47463;49.884;10.010;2024-01-25T03:00:01;103000;;;7.1;69
61571;BME280;47463;49.884;10.010;2024-01-25T03:05:01;103000;;;7.2;69
61571;BME280;47463;49.884;10.010;2024-01-25T03:10:01;103000;;;7.1;69
61571;BME280;47463;49.884;10.010;2024-01-25T03:15:01;103000;;;7.1;69
61571;BME280;47463;49.884;10.010;2024-01-25T03:20:01;103000;;;7.1;69
61571;BME280;47463;49.884;10.010;2024-01-25T03:25:01;103009.99999999999;;;7.1;70
61571;BME280;47463;49.884;10.010;2024-01-25T03:30:01;103020;;;7.1;70
61571;BME280;47463;49.884;10.010;2024-01-25T03:35:01;103020;;;7;70
61571;BME280;47463;49.884;10.010;2024-01-25T03:40:01;103030;;;7.1;70
61571;BME280;47463;49.884;10.010;2024-01-25T03:45:01;103020;;;7.1;70
61571;BME280;47463;49.884;10.010;2024-01-25T03:50:01;103030;;;7.1;70
61571;BME280;47463;49.884;10.010;2024-01-25T03:55:01;103040.00000000001;;;7.1;70
61571;BME280;47463;49.884;10.010;2024-01-25T04:00:01;103030;;;7.1;70
61571;BME280;47463;49.884;10.010;2024-01-25T04:05:01;103040.00000000001;;;7.1;70
61571;BME280;47463;49.884;10.010;2024-01-25T04:10:01;103059.99999999999;;;7.1;70
61571;BME280;47463;49.884;10.010;2024-01-25T04:15:01;103059.99999999999;;;7.1;70
61571;BME280;47463;49.884;10.010;2024-01-25T04:20:01;103059.99999999999;;;7;70
61571;BME280;47463;49.884;10.010;2024-01-25T04:25:01;103059.99999999999;;;7.1;70
61571;BME280;47463;49.884;10.010;2024-01-25T04:30:01;103050;;;6.9;71
61571;BME280;47463;49.884;10.010;2024-01-25T04:35:01;103050;;;6.9;71
61571;BME280;47463;49.884;10.010;2024-01-25T04:40:01;103059.99999999999;;;6.9;71
61571;BME280;47463;49.884;10.010;2024-01-25T04:45:01;103059.99999999999;;;6.9;71
61571;BME280;47463;49.884;10.010;2024-01-25T04:50:01;103059.99999999999;;;6.8;71
61571;BME280;47463;49.884;10.010;2024-01-25T04:55:01;103040.00000000001;;;6.9;71
61571;BME280;47463;49.884;10.010;2024-01-25T05:00:01;103040.00000000001;;;6.9;71
61571;BME280;47463;49.884;10.010;2024-01-25T05:05:01;103059.99999999999;;;6.9;71
61571;BME280;47463;49.884;10.010;2024-01-25T05:10:01;103059.99999999999;;;6.9;71
61571;BME280;47463;49.884;10.010;2024-01-25T05:15:01;103059.99999999999;;;6.8;71
61571;BME280;47463;49.884;10.010;2024-01-25T05:20:01;103050;;;6.7;71
61571;BME280;47463;49.884;10.010;2024-01-25T05:25:01;103070;;;6.7;72
61571;BME280;47463;49.884;10.010;2024-01-25T05:30:01;103100;;;6.7;71
61571;BME280;47463;49.884;10.010;2024-01-25T05:35:01;103120;;;6.6;72
61571;BME280;47463;49.884;10.010;2024-01-25T05:40:01;103120;;;6.5;72
61571;BME280;47463;49.884;10.010;2024-01-25T05:45:01;103140.00000000001;;;6.4;72
61571;BME280;47463;49.884;10.010;2024-01-25T05:50:01;103150;;;6.3;73
61571;BME280;47463;49.884;10.010;2024-01-25T05:55:01;103140.00000000001;;;6.2;73
61571;BME280;47463;49.884;10.010;2024-01-25T06:00:01;103140.00000000001;;;6.2;73
61571;BME280;47463;49.884;10.010;2024-01-25T06:05:01;103120;;;6.1;73
61571;BME280;47463;49.884;10.010;2024-01-25T06:10:01;103120;;;6.1;73
61571;BME280;47463;49.884;10.010;2024-01-25T06:15:01;103159.99999999999;;;6;74
61571;BME280;47463;49.884;10.010;2024-01-25T06:20:01;103190.00000000001;;;5.9;74
61571;BME280;47463;49.884;10.010;2024-01-25T06:25:01;103190.00000000001;;;5.8;75
61571;BME280;47463;49.884;10.010;2024-01-25T06:30:01;103170;;;5.6;75
61571;BME280;47463;49.884;10.010;2024-01-25T06:35:01;103180;;;5.3;76
61571;BME280;47463;49.884;10.010;2024-01-25T06:40:01;103200;;;5.5;76
61571;BME280;47463;49.884;10.010;2024-01-25T06:45:01;103200;;;5.4;75
61571;BME280;47463;49.884;10.010;2024-01-25T06:50:01;103200;;;5.3;76
61571;BME280;47463;49.884;10.010;2024-01-25T06:55:01;103200;;;5.3;75
61571;BME280;47463;49.884;10.010;2024-01-25T07:00:01;103230;;;5.3;76
61571;BME280;47463;49.884;10.010;2024-01-25T07:05:01;103220;;;5.3;75
61571;BME280;47463;49.884;10.010;2024-01-25T07:10:01;103230;;;5.4;75
61571;BME280;47463;49.884;10.010;2024-01-25T07:15:01;103220;;;5.5;75
61571;BME280;47463;49.884;10.010;2024-01-25T07:20:01;103220;;;5.3;75
61571;BME280;47463;49.884;10.010;2024-01-25T07:25:01;103220;;;5.4;75
61571;BME280;47463;49.884;10.010;2024-01-25T07:30:01;103240.00000000001;;;5.5;74
61571;BME280;47463;49.884;10.010;2024-01-25T07:35:01;103259.99999999999;;;5.6;74
61571;BME280;47463;49.884;10.010;2024-01-25T07:40:01;103270;;;5.5;74
61571;BME280;47463;49.884;10.010;2024-01-25T07:45:01;103259.99999999999;;;5.5;74
61571;BME280;47463;49.884;10.010;2024-01-25T07:50:01;103270;;;5.6;74
61571;BME280;47463;49.884;10.010;2024-01-25T07:55:01;103270;;;5.5;74
61571;BME280;47463;49.884;10.010;2024-01-25T08:00:01;103259.99999999999;;;5.4;75
61571;BME280;47463;49.884;10.010;2024-01-25T08:05:01;103259.99999999999;;;5.5;75
61571;BME280;47463;49.884;10.010;2024-01-25T08:10:01;103290.00000000001;;;5.8;74
61571;BME280;47463;49.884;10.010;2024-01-25T08:15:01;103290.00000000001;;;5.9;74
61571;BME280;47463;49.884;10.010;2024-01-25T08:20:01;103300;;;6;73
61571;BME280;47463;49.884;10.010;2024-01-25T08:25:01;103290.00000000001;;;6;73
61571;BME280;47463;49.884;10.010;2024-01-25T08:30:01;103290.00000000001;;;6.2;73
61571;BME280;47463;49.884;10.010;2024-01-25T08:35:01;103300;;;6.3;73
61571;BME280;47463;49.884;10.010;2024-01-25T08:40:01;103309.99999999999;;;6.5;72
61571;BME280;47463;49.884;10.010;2024-01-25T08:45:01;103300;;;6.6;71
61571;BME280;47463;49.884;10.010;2024-01-25T08:50:01;103309.99999999999;;;6.7;71
61571;BME280;47463;49.884;10.010;2024-01-25T08:55:01;103300;;;6.8;71
61571;BME280;47463;49.884;10.010;2024-01-25T09:00:01;103300;;;6.9;71
61571;BME280;47463;49.884;10.010;2024-01-25T09:05:01;103290.00000000001;;;7;71
61571;BME280;47463;49.884;10.010;2024-01-25T09:10:01;103309.99999999999;;;7.1;70
61571;BME280;47463;49.884;10.010;2024-01-25T09:15:01;103320;;;7.1;71
61571;BME280;47463;49.884;10.010;2024-01-25T09:20:01;103330;;;7.2;71
61571;BME280;47463;49.884;10.010;2024-01-25T09:25:01;103340.00000000001;;;7.1;70
61571;BME280;47463;49.884;10.010;2024-01-25T09:30:01;103340.00000000001;;;7.1;70
61571;BME280;47463;49.884;10.010;2024-01-25T09:35:01;103330;;;7.1;70
61571;BME280;47463;49.884;10.010;2024-01-25T09:40:01;103340.00000000001;;;7.2;70
61571;BME280;47463;49.884;10.010;2024-01-25T09:45:01;103350;;;7.3;70
61571;BME280;47463;49.884;10.010;2024-01-25T09:50:01;103350;;;7.4;69
61571;BME280;47463;49.884;10.010;2024-01-25T09:55:01;103359.99999999999;;;7.5;69
61571;BME280;47463;49.884;10.010;2024-01-25T10:00:01;103370;;;7.5;68
61571;BME280;47463;49.884;10.010;2024-01-25T10:05:01;103359.99999999999;;;7.6;68
61571;BME280;47463;49.884;10.010;2024-01-25T10:10:01;103359.99999999999;;;7.6;68
61571;BME280;47463;49.884;10.010;2024-01-25T10:15:02;103370;;;7.8;68
61571;BME280;47463;49.884;10.010;2024-01-25T10:20:01;103370;;;7.8;68
61571;BME280;47463;49.884;10.010;2024-01-25T10:25:01;103370;;;7.8;68
61571;BME280;47463;49.884;10.010;2024-01-25T10:30:01;103370;;;7.6;68
61571;BME280;47463;49.884;10.010;2024-01-25T10:35:01;103370;;;7.6;68
61571;BME280;47463;49.884;10.010;2024-01-25T10:40:01;103370;;;7.6;67
61571;BME280;47463;49.884;10.010;2024-01-25T10:45:01;103350;;;7.6;67
61571;BME280;47463;49.884;10.010;2024-01-25T10:50:01;103359.99999999999;;;7.7;67
61571;BME280;47463;49.884;10.010;2024-01-25T10:55:01;103359.99999999999;;;7.9;66
61571;BME280;47463;49.884;10.010;2024-01-25T11:00:01;103359.99999999999;;;8;66
61571;BME280;47463;49.884;10.010;2024-01-25T11:05:01;103359.99999999999;;;8;66
61571;BME280;47463;49.884;10.010;2024-01-25T11:10:01;103350;;;7.9;64
61571;BME280;47463;49.884;10.010;2024-01-25T11:15:05;103340.00000000001;;;7.9;65
61571;BME280;47463;49.884;10.010;2024-01-25T11:20:02;103340.00000000001;;;8;64
61571;BME280;47463;49.884;10.010;2024-01-25T11:25:10;103340.00000000001;;;8.1;61
61571;BME280;47463;49.884;10.010;2024-01-25T11:30:01;103330;;;8.1;60
61571;BME280;47463;49.884;10.010;2024-01-25T11:35:01;103309.99999999999;;;8.3;60
61571;BME280;47463;49.884;10.010;2024-01-25T11:40:01;103309.99999999999;;;8.3;59
61571;BME280;47463;49.884;10.010;2024-01-25T11:45:01;103300;;;8.2;59
61571;BME280;47463;49.884;10.010;2024-01-25T11:50:01;103300;;;8.2;58
61571;BME280;47463;49.884;10.010;2024-01-25T11:55:01;103300;;;8.3;59
61571;BME280;47463;49.884;10.010;2024-01-25T12:00:01;103309.99999999999;;;8.3;58
61571;BME280;47463;49.884;10.010;2024-01-25T12:05:01;103309.99999999999;;;8.1;57
61571;BME280;47463;49.884;10.010;2024-01-25T12:10:02;103309.99999999999;;;8.2;57
61571;BME280;47463;49.884;10.010;2024-01-25T12:15:01;103309.99999999999;;;8.3;57
61571;BME280;47463;49.884;10.010;2024-01-25T12:20:01;103300;;;8.2;57
61571;BME280;47463;49.884;10.010;2024-01-25T12:25:01;103280;;;8.2;57
61571;BME280;47463;49.884;10.010;2024-01-25T12:30:01;103270;;;8.3;57
61571;BME280;47463;49.884;10.010;2024-01-25T12:35:01;103270;;;8.3;57
61571;BME280;47463;49.884;10.010;2024-01-25T12:40:01;103270;;;8.5;57
61571;BME280;47463;49.884;10.010;2024-01-25T12:45:01;103270;;;8.6;57
61571;BME280;47463;49.884;10.010;2024-01-25T12:50:01;103250;;;8.5;57
61571;BME280;47463;49.884;10.010;2024-01-25T12:55:01;103259.99999999999;;;8.4;58
61571;BME280;47463;49.884;10.010;2024-01-25T13:00:01;103250;;;8.4;58
61571;BME280;47463;49.884;10.010;2024-01-25T13:05:01;103230;;;8.3;58
61571;BME280;47463;49.884;10.010;2024-01-25T13:10:01;103240.00000000001;;;8.3;58
61571;BME280;47463;49.884;10.010;2024-01-25T13:15:01;103230;;;8.3;58
61571;BME280;47463;49.884;10.010;2024-01-25T13:20:01;103230;;;8.3;57
61571;BME280;47463;49.884;10.010;2024-01-25T13:25:01;103230;;;8.4;57
61571;BME280;47463;49.884;10.010;2024-01-25T13:30:01;103230;;;8.5;58
61571;BME280;47463;49.884;10.010;2024-01-25T13:35:01;103220;;;8.6;58
61571;BME280;47463;49.884;10.010;2024-01-25T13:40:01;103220;;;8.6;59
61571;BME280;47463;49.884;10.010;2024-01-25T13:45:01;103220;;;8.5;59
61571;BME280;47463;49.884;10.010;2024-01-25T13:50:01;103209.99999999999;;;8.6;59
61571;BME280;47463;49.884;10.010;2024-01-25T13:55:01;103200;;;8.5;60
61571;BME280;47463;49.884;10.010;2024-01-25T14:00:01;103190.00000000001;;;8.3;60
61571;BME280;47463;49.884;10.010;2024-01-25T14:05:01;103180;;;8.2;61
61571;BME280;47463;49.884;10.010;2024-01-25T14:10:01;103190.00000000001;;;8.2;61
61571;BME280;47463;49.884;10.010;2024-01-25T14:15:01;103190.00000000001;;;8.1;61
61571;BME280;47463;49.884;10.010;2024-01-25T14:20:01;103180;;;8.1;61
61571;BME280;47463;49.884;10.010;2024-01-25T14:25:01;103190.00000000001;;;8.1;61
61571;BME280;47463;49.884;10.010;2024-01-25T14:30:01;103170;;;8.1;61
61571;BME280;47463;49.884;10.010;2024-01-25T14:35:01;103170;;;8;61
61571;BME280;47463;49.884;10.010;2024-01-25T14:40:01;103170;;;8;62
61571;BME280;47463;49.884;10.010;2024-01-25T14:45:01;103170;;;7.9;61
61571;BME280;47463;49.884;10.010;2024-01-25T14:50:01;103159.99999999999;;;7.9;61
61571;BME280;47463;49.884;10.010;2024-01-25T14:55:01;103159.99999999999;;;7.8;61
61571;BME280;47463;49.884;10.010;2024-01-25T15:00:01;103170;;;7.7;62
61571;BME280;47463;49.884;10.010;2024-01-25T15:05:01;103159.99999999999;;;7.7;61
61571;BME280;47463;49.884;10.010;2024-01-25T15:10:01;103150;;;7.6;62
61571;BME280;47463;49.884;10.010;2024-01-25T15:15:01;103150;;;7.5;62
61571;BME280;47463;49.884;10.010;2024-01-25T15:20:01;103159.99999999999;;;7.5;62
61571;BME280;47463;49.884;10.010;2024-01-25T15:25:01;103159.99999999999;;;7.5;62
61571;BME280;47463;49.884;10.010;2024-01-25T15:30:01;103170;;;7.4;63
61571;BME280;47463;49.884;10.010;2024-01-25T15:35:01;103180;;;7.4;63
61571;BME280;47463;49.884;10.010;2024-01-25T15:40:01;103180;;;7.3;63
61571;BME280;47463;49.884;10.010;2024-01-25T15:45:01;103170;;;7.2;63
61571;BME280;47463;49.884;10.010;2024-01-25T15:50:01;103159.99999999999;;;7.4;62
61571;BME280;47463;49.884;10.010;2024-01-25T15:55:01;103150;;;7.1;64
61571;BME280;47463;49.884;10.010;2024-01-25T16:00:01;103159.99999999999;;;7.1;64
61571;BME280;47463;49.884;10.010;2024-01-25T16:05:01;103159.99999999999;;;7;64
61571;BME280;47463;49.884;10.010;2024-01-25T16:10:01;103150;;;7.1;64
61571;BME280;47463;49.884;10.010;2024-01-25T16:15:01;103150;;;6.9;64
61571;BME280;47463;49.884;10.010;2024-01-25T16:20:01;103140.00000000001;;;6.9;64
61571;BME280;47463;49.884;10.010;2024-01-25T16:25:01;103150;;;6.9;64
61571;BME280;47463;49.884;10.010;2024-01-25T16:30:01;103150;;;7;64
61571;BME280;47463;49.884;10.010;2024-01-25T16:35:01;103150;;;6.9;64
61571;BME280;47463;49.884;10.010;2024-01-25T16:40:01;103140.00000000001;;;6.8;64
61571;BME280;47463;49.884;10.010;2024-01-25T16:45:01;103150;;;6.8;65
61571;BME280;47463;49.884;10.010;2024-01-25T16:50:01;103150;;;6.7;65
61571;BME280;47463;49.884;10.010;2024-01-25T16:55:01;103140.00000000001;;;6.7;65
61571;BME280;47463;49.884;10.010;2024-01-25T17:00:01;103140.00000000001;;;6.7;65
61571;BME280;47463;49.884;10.010;2024-01-25T17:05:01;103120;;;6.7;65
61571;BME280;47463;49.884;10.010;2024-01-25T17:10:01;103120;;;6.7;65
61571;BME280;47463;49.884;10.010;2024-01-25T17:15:01;103120;;;6.5;66
61571;BME280;47463;49.884;10.010;2024-01-25T17:20:01;103120;;;6.4;66
61571;BME280;47463;49.884;10.010;2024-01-25T17:25:01;103120;;;6.3;67
61571;BME280;47463;49.884;10.010;2024-01-25T17:30:01;103109.99999999999;;;6.2;67
61571;BME280;47463;49.884;10.010;2024-01-25T17:35:01;103109.99999999999;;;6.1;67
61571;BME280;47463;49.884;10.010;2024-01-25T17:40:01;103100;;;6;68
61571;BME280;47463;49.884;10.010;2024-01-25T17:45:01;103109.99999999999;;;5.7;69
61571;BME280;47463;49.884;10.010;2024-01-25T17:50:01;103109.99999999999;;;5.4;70
61571;BME280;47463;49.884;10.010;2024-01-25T17:55:01;103109.99999999999;;;5.1;71
61571;BME280;47463;49.884;10.010;2024-01-25T18:00:01;103109.99999999999;;;5;71
61571;BME280;47463;49.884;10.010;2024-01-25T18:05:01;103109.99999999999;;;4.8;72
61571;BME280;47463;49.884;10.010;2024-01-25T18:10:01;103109.99999999999;;;4.7;72
61571;BME280;47463;49.884;10.010;2024-01-25T18:15:01;103120;;;4.7;73
61571;BME280;47463;49.884;10.010;2024-01-25T18:20:01;103120;;;4.6;73
61571;BME280;47463;49.884;10.010;2024-01-25T18:25:01;103109.99999999999;;;4.5;74
61571;BME280;47463;49.884;10.010;2024-01-25T18:30:01;103120;;;4.4;74
61571;BME280;47463;49.884;10.010;2024-01-25T18:35:01;103109.99999999999;;;4.3;74
61571;BME280;47463;49.884;10.010;2024-01-25T18:40:01;103109.99999999999;;;4.3;74
61571;BME280;47463;49.884;10.010;2024-01-25T18:45:01;103109.99999999999;;;4.1;75
61571;BME280;47463;49.884;10.010;2024-01-25T18:50:01;103090.00000000001;;;4.1;75
61571;BME280;47463;49.884;10.010;2024-01-25T18:55:01;103100;;;4.1;76
61571;BME280;47463;49.884;10.010;2024-01-25T19:00:01;103100;;;4.2;77
61571;BME280;47463;49.884;10.010;2024-01-25T19:05:01;103100;;;4.3;77
61571;BME280;47463;49.884;10.010;2024-01-25T19:10:01;103100;;;4.3;78
61571;BME280;47463;49.884;10.010;2024-01-25T19:15:01;103100;;;4.4;77
61571;BME280;47463;49.884;10.010;2024-01-25T19:20:01;103100;;;4.5;76
61571;BME280;47463;49.884;10.010;2024-01-25T19:25:01;103090.00000000001;;;4.5;76
61571;BME280;47463;49.884;10.010;2024-01-25T19:30:01;103090.00000000001;;;4.9;75
61571;BME280;47463;49.884;10.010;2024-01-25T19:35:01;103090.00000000001;;;4.9;75
61571;BME280;47463;49.884;10.010;2024-01-25T19:40:01;103090.00000000001;;;5.1;75
61571;BME280;47463;49.884;10.010;2024-01-25T19:45:01;103090.00000000001;;;5.3;73
61571;BME280;47463;49.884;10.010;2024-01-25T19:50:01;103100;;;5.4;73
61571;BME280;47463;49.884;10.010;2024-01-25T19:55:01;103090.00000000001;;;5.6;73
61571;BME280;47463;49.884;10.010;2024-01-25T20:00:01;103090.00000000001;;;5.6;73
61571;BME280;47463;49.884;10.010;2024-01-25T20:05:01;103090.00000000001;;;5.4;74
61571;BME280;47463;49.884;10.010;2024-01-25T20:10:01;103090.00000000001;;;5.2;74
61571;BME280;47463;49.884;10.010;2024-01-25T20:15:01;103109.99999999999;;;4.9;75
61571;BME280;47463;49.884;10.010;2024-01-25T20:20:01;103100;;;4.8;75
61571;BME280;47463;49.884;10.010;2024-01-25T20:25:01;103100;;;4.5;77
61571;BME280;47463;49.884;10.010;2024-01-25T20:30:01;103090.00000000001;;;4.4;77
61571;BME280;47463;49.884;10.010;2024-01-25T20:35:01;103090.00000000001;;;4.4;78
61571;BME280;47463;49.884;10.010;2024-01-25T20:40:01;103100;;;4.4;78
61571;BME280;47463;49.884;10.010;2024-01-25T20:45:01;103080;;;4.6;77
61571;BME280;47463;49.884;10.010;2024-01-25T20:50:01;103080;;;4.7;77
61571;BME280;47463;49.884;10.010;2024-01-25T20:55:01;103090.00000000001;;;4.7;77
61571;BME280;47463;49.884;10.010;2024-01-25T21:00:01;103080;;;4.7;76
61571;BME280;47463;49.884;10.010;2024-01-25T21:05:01;103080;;;5;76
61571;BME280;47463;49.884;10.010;2024-01-25T21:10:01;103090.00000000001;;;5.4;75
61571;BME280;47463;49.884;10.010;2024-01-25T21:15:01;103090.00000000001;;;5.7;75
61571;BME280;47463;49.884;10.010;2024-01-25T21:20:01;103080;;;5.8;75
61571;BME280;47463;49.884;10.010;2024-01-25T21:25:01;103050;;;5.7;76
61571;BME280;47463;49.884;10.010;2024-01-25T21:30:01;103050;;;5.4;78
61571;BME280;47463;49.884;10.010;2024-01-25T21:35:01;103059.99999999999;;;5.3;79
61571;BME280;47463;49.884;10.010;2024-01-25T21:40:01;103050;;;5.2;80
61571;BME280;47463;49.884;10.010;2024-01-25T21:45:01;103040.00000000001;;;5.3;80
61571;BME280;47463;49.884;10.010;2024-01-25T21:50:01;103050;;;5.2;80
61571;BME280;47463;49.884;10.010;2024-01-25T21:55:01;103050;;;5.2;80
61571;BME280;47463;49.884;10.010;2024-01-25T22:00:01;103050;;;5.5;80
61571;BME280;47463;49.884;10.010;2024-01-25T22:05:01;103050;;;5.7;79
61571;BME280;47463;49.884;10.010;2024-01-25T22:10:01;103050;;;5.7;79
61571;BME280;47463;49.884;10.010;2024-01-25T22:15:01;103059.99999999999;;;5.6;79
61571;BME280;47463;49.884;10.010;2024-01-25T22:20:01;103050;;;5.6;79
61571;BME280;47463;49.884;10.010;2024-01-25T22:25:01;103059.99999999999;;;5.7;80
61571;BME280;47463;49.884;10.010;2024-01-25T22:30:01;103059.99999999999;;;5.7;80
61571;BME280;47463;49.884;10.010;2024-01-25T22:35:01;103050;;;5.7;80
61571;BME280;47463;49.884;10.010;2024-01-25T22:40:01;103030;;;5.7;81
61571;BME280;47463;49.884;10.010;2024-01-25T22:45:01;103040.00000000001;;;5.8;81
61571;BME280;47463;49.884;10.010;2024-01-25T22:50:01;103050;;;5.9;82
61571;BME280;47463;49.884;10.010;2024-01-25T22:55:01;103040.00000000001;;;5.8;83
61571;BME280;47463;49.884;10.010;2024-01-25T23:00:01;103030;;;5.8;83
61571;BME280;47463;49.884;10.010;2024-01-25T23:05:01;103020;;;5.8;83
61571;BME280;47463;49.884;10.010;2024-01-25T23:10:01;103020;;;5.8;83
61571;BME280;47463;49.884;10.010;2024-01-25T23:15:01;103009.99999999999;;;5.8;83
61571;BME280;47463;49.884;10.010;2024-01-25T23:20:01;103030;;;5.8;83
61571;BME280;47463;49.884;10.010;2024-01-25T23:25:01;103020;;;5.8;84
61571;BME280;47463;49.884;10.010;2024-01-25T23:30:01;103009.99999999999;;;5.9;84
61571;BME280;47463;49.884;10.010;2024-01-25T23:35:01;103020;;;5.9;84
61571;BME280;47463;49.884;10.010;2024-01-25T23:40:01;103009.99999999999;;;6;84
61571;BME280;47463;49.884;10.010;2024-01-25T23:45:01;103009.99999999999;;;6.2;84
61571;BME280;47463;49.884;10.010;2024-01-25T23:50:01;103009.99999999999;;;6.2;84
61571;BME280;47463;49.884;10.010;2024-01-25T23:55:01;103009.99999999999;;;6.3;84
